createdAt,value
2016-05-14T00:00:44.686Z,996.6
2016-05-14T00:01:44.705Z,996.56
2016-05-14T00:02:44.724Z,996.58
2016-05-14T00:03:44.757Z,996.59
2016-05-14T00:04:44.776Z,996.56
2016-05-14T00:05:44.793Z,996.56
2016-05-14T00:06:44.828Z,996.57
2016-05-14T00:07:44.846Z,996.58
2016-05-14T00:08:44.865Z,996.56
2016-05-14T00:09:44.882Z,996.58
2016-05-14T00:10:44.901Z,996.58
2016-05-14T00:11:44.935Z,996.56
2016-05-14T00:12:44.954Z,996.51
2016-05-14T00:13:44.972Z,996.5
2016-05-14T00:14:45.006Z,996.53
2016-05-14T00:15:45.040Z,996.52
2016-05-14T00:16:45.042Z,996.52
2016-05-14T00:17:45.061Z,996.56
2016-05-14T00:18:45.079Z,996.5
2016-05-14T00:19:45.113Z,996.56
2016-05-14T00:20:45.131Z,996.53
2016-05-14T00:21:45.150Z,996.54
2016-05-14T00:22:45.184Z,996.51
2016-05-14T00:23:45.202Z,996.52
2016-05-14T00:24:45.220Z,996.48
2016-05-14T00:25:45.238Z,996.45
2016-05-14T00:26:45.272Z,996.47
2016-05-14T00:27:45.291Z,996.47
2016-05-14T00:28:45.309Z,996.47
2016-05-14T00:29:45.327Z,996.48
2016-05-14T00:31:45.380Z,996.51
2016-05-14T00:32:45.398Z,996.49
2016-05-14T00:33:45.416Z,996.46
2016-05-14T00:34:45.449Z,996.47
2016-05-14T00:35:45.469Z,996.45
2016-05-14T00:36:45.502Z,996.45
2016-05-14T00:37:45.505Z,996.44
2016-05-14T00:38:45.539Z,996.46
2016-05-14T00:39:45.557Z,996.44
2016-05-14T00:40:45.576Z,996.45
2016-05-14T00:41:45.610Z,996.49
2016-05-14T00:42:45.627Z,996.47
2016-05-14T00:43:45.646Z,996.51
2016-05-14T00:44:45.664Z,996.49
2016-05-14T00:45:45.699Z,996.5
2016-05-14T00:47:45.735Z,996.5
2016-05-14T00:48:45.754Z,996.5
2016-05-14T00:49:45.787Z,996.5
2016-05-14T00:50:45.806Z,996.49
2016-05-14T00:51:45.823Z,996.48
2016-05-14T00:52:45.842Z,996.49
2016-05-14T00:53:45.876Z,996.53
2016-05-14T00:54:45.895Z,996.5
2016-05-14T00:55:45.913Z,996.52
2016-05-14T00:56:45.931Z,996.52
2016-05-14T00:57:45.964Z,996.53
2016-05-14T00:58:45.983Z,996.54
2016-05-14T00:59:46.002Z,996.48
2016-05-14T01:00:46.020Z,996.48
2016-05-14T01:01:46.054Z,996.49
2016-05-14T01:03:46.091Z,996.47
2016-05-14T01:04:46.124Z,996.48
2016-05-14T01:05:46.143Z,996.5
2016-05-14T01:06:46.161Z,996.49
2016-05-14T01:07:46.180Z,996.45
2016-05-14T01:08:46.214Z,996.43
2016-05-14T01:09:46.232Z,996.44
2016-05-14T01:10:46.250Z,996.4
2016-05-14T01:11:46.268Z,996.44
2016-05-14T01:12:46.302Z,996.39
2016-05-14T01:13:46.321Z,996.41
2016-05-14T01:14:46.338Z,996.37
2016-05-14T01:15:46.358Z,996.39
2016-05-14T01:16:46.391Z,996.41
2016-05-14T01:17:46.409Z,996.39
2016-05-14T01:19:46.446Z,996.43
2016-05-14T01:20:46.479Z,996.44
2016-05-14T01:21:46.498Z,996.37
2016-05-14T01:22:46.517Z,996.39
2016-05-14T01:23:46.535Z,996.4
2016-05-14T01:24:46.569Z,996.43
2016-05-14T01:25:46.587Z,996.45
2016-05-14T01:26:46.606Z,996.44
2016-05-14T01:27:46.639Z,996.41
2016-05-14T01:28:46.658Z,996.46
2016-05-14T01:29:46.676Z,996.42
2016-05-14T01:30:46.695Z,996.47
2016-05-14T01:31:46.714Z,996.46
2016-05-14T01:32:46.747Z,996.47
2016-05-14T01:34:46.784Z,996.44
2016-05-14T01:35:46.802Z,996.47
2016-05-14T01:36:46.835Z,996.47
2016-05-14T01:37:46.854Z,996.53
2016-05-14T01:38:46.872Z,996.44
2016-05-14T01:39:46.891Z,996.48
2016-05-14T01:40:46.924Z,996.43
2016-05-14T01:41:46.944Z,996.51
2016-05-14T01:42:46.960Z,996.48
2016-05-14T01:43:46.995Z,996.54
2016-05-14T01:44:47.013Z,996.55
2016-05-14T01:45:47.032Z,996.54
2016-05-14T01:46:47.050Z,996.51
2016-05-14T01:47:47.084Z,996.53
2016-05-14T01:48:47.102Z,996.53
2016-05-14T01:49:47.120Z,996.59
2016-05-14T01:50:47.140Z,996.6
2016-05-14T01:51:47.173Z,996.6
2016-05-14T01:52:47.191Z,996.61
2016-05-14T01:53:47.209Z,996.61
2016-05-14T01:54:47.228Z,996.63
2016-05-14T01:55:47.262Z,996.69
2016-05-14T01:56:47.280Z,996.63
2016-05-14T01:57:47.299Z,996.66
2016-05-14T01:58:47.317Z,996.62
2016-05-14T01:59:47.351Z,996.64
2016-05-14T02:00:47.369Z,996.66
2016-05-14T02:01:47.387Z,996.66
2016-05-14T02:02:47.406Z,996.66
2016-05-14T02:03:47.424Z,996.64
2016-05-14T02:04:47.458Z,996.66
2016-05-14T02:06:47.494Z,996.69
2016-05-14T02:07:47.528Z,996.66
2016-05-14T02:08:47.547Z,996.72
2016-05-14T02:09:47.566Z,996.74
2016-05-14T02:10:47.583Z,996.75
2016-05-14T02:11:47.602Z,996.79
2016-05-14T02:12:47.635Z,996.79
2016-05-14T02:13:47.654Z,996.77
2016-05-14T02:14:47.672Z,996.8
2016-05-14T02:15:47.722Z,996.81
2016-05-14T02:16:47.725Z,996.77
2016-05-14T02:17:47.743Z,996.82
2016-05-14T02:18:47.761Z,996.84
2016-05-14T02:19:47.779Z,996.83
2016-05-14T02:20:47.813Z,996.85
2016-05-14T02:22:47.850Z,996.88
2016-05-14T02:23:47.868Z,996.91
2016-05-14T02:24:47.902Z,996.87
2016-05-14T02:25:47.921Z,996.88
2016-05-14T02:26:47.954Z,996.94
2016-05-14T02:27:47.956Z,996.9
2016-05-14T02:28:47.992Z,996.96
2016-05-14T02:29:48.026Z,996.96
2016-05-14T02:30:48.028Z,996.96
2016-05-14T02:31:48.046Z,996.97
2016-05-14T02:32:48.081Z,996.95
2016-05-14T02:33:48.098Z,996.97
2016-05-14T02:34:48.117Z,996.95
2016-05-14T02:35:48.135Z,996.97
2016-05-14T02:36:48.169Z,996.97
2016-05-14T02:38:48.269Z,996.94
2016-05-14T02:39:48.240Z,996.97
2016-05-14T02:40:48.258Z,996.99
2016-05-14T02:41:48.276Z,996.98
2016-05-14T02:42:48.294Z,997
2016-05-14T02:43:48.375Z,997.03
2016-05-14T02:44:48.347Z,997.11
2016-05-14T02:45:48.412Z,997.02
2016-05-14T02:46:48.383Z,997.04
2016-05-14T02:47:48.402Z,997.07
2016-05-14T02:48:48.420Z,997.1
2016-05-14T02:49:48.454Z,997.07
2016-05-14T02:50:48.471Z,997.07
2016-05-14T02:51:48.506Z,997.09
2016-05-14T02:52:48.510Z,997.13
2016-05-14T02:54:48.561Z,997.12
2016-05-14T02:55:48.579Z,997.15
2016-05-14T02:56:48.598Z,997.17
2016-05-14T02:57:48.632Z,997.18
2016-05-14T02:58:48.650Z,997.14
2016-05-14T02:59:48.668Z,997.16
2016-05-14T03:00:48.686Z,997.16
2016-05-14T03:01:48.720Z,997.21
2016-05-14T03:02:48.739Z,997.18
2016-05-14T03:03:48.757Z,997.22
2016-05-14T03:04:48.791Z,997.27
2016-05-14T03:05:48.809Z,997.25
2016-05-14T03:06:48.828Z,997.27
2016-05-14T03:07:48.846Z,997.3
2016-05-14T03:09:48.898Z,997.29
2016-05-14T03:10:48.916Z,997.31
2016-05-14T03:11:48.935Z,997.34
2016-05-14T03:12:48.953Z,997.4
2016-05-14T03:13:48.988Z,997.33
2016-05-14T03:14:49.005Z,997.32
2016-05-14T03:15:49.024Z,997.33
2016-05-14T03:16:49.042Z,997.38
2016-05-14T03:17:49.076Z,997.35
2016-05-14T03:18:49.094Z,997.37
2016-05-14T03:19:49.112Z,997.38
2016-05-14T03:20:49.131Z,997.5
2016-05-14T03:21:49.165Z,997.39
2016-05-14T03:22:49.183Z,997.44
2016-05-14T03:23:49.202Z,997.45
2016-05-14T03:24:49.235Z,997.44
2016-05-14T03:25:49.254Z,997.43
2016-05-14T03:26:49.272Z,997.41
2016-05-14T03:27:49.290Z,997.43
2016-05-14T03:28:49.309Z,997.46
2016-05-14T03:29:49.326Z,997.48
2016-05-14T03:30:49.362Z,997.47
2016-05-14T03:31:49.379Z,997.47
2016-05-14T03:32:49.398Z,997.46
2016-05-14T03:33:49.416Z,997.48
2016-05-14T03:34:49.450Z,997.48
2016-05-14T03:35:49.468Z,997.49
2016-05-14T03:36:49.486Z,997.52
2016-05-14T03:37:49.505Z,997.44
2016-05-14T03:38:49.539Z,997.45
2016-05-14T03:39:49.558Z,997.5
2016-05-14T03:41:49.594Z,997.48
2016-05-14T03:42:49.612Z,997.49
2016-05-14T03:43:49.646Z,997.45
2016-05-14T03:44:49.664Z,997.48
2016-05-14T03:45:49.682Z,997.48
2016-05-14T03:46:49.716Z,997.5
2016-05-14T03:47:49.735Z,997.52
2016-05-14T03:48:49.752Z,997.59
2016-05-14T03:49:49.771Z,997.58
2016-05-14T03:50:49.790Z,997.52
2016-05-14T03:51:49.824Z,997.55
2016-05-14T03:52:49.842Z,997.63
2016-05-14T03:53:49.860Z,997.62
2016-05-14T03:54:49.894Z,997.61
2016-05-14T03:55:49.912Z,997.62
2016-05-14T03:57:49.948Z,997.64
2016-05-14T03:58:49.967Z,997.64
2016-05-14T03:59:50.002Z,997.67
2016-05-14T04:00:50.020Z,997.66
2016-05-14T04:01:50.038Z,997.71
2016-05-14T04:02:50.056Z,997.7
2016-05-14T04:03:50.090Z,997.69
2016-05-14T04:04:50.109Z,997.68
2016-05-14T04:05:50.127Z,997.73
2016-05-14T04:06:50.145Z,997.71
2016-05-14T04:07:50.179Z,997.7
2016-05-14T04:08:50.198Z,997.72
2016-05-14T04:09:50.217Z,997.73
2016-05-14T04:10:50.234Z,997.77
2016-05-14T04:11:50.269Z,997.75
2016-05-14T04:13:50.305Z,997.77
2016-05-14T04:14:50.322Z,997.8
2016-05-14T04:15:50.357Z,997.77
2016-05-14T04:16:50.375Z,997.81
2016-05-14T04:17:50.394Z,997.84
2016-05-14T04:18:50.412Z,997.85
2016-05-14T04:19:50.452Z,997.9
2016-05-14T04:20:50.513Z,997.86
2016-05-14T04:21:50.574Z,997.88
2016-05-14T04:22:50.636Z,997.93
2016-05-14T04:23:50.696Z,997.95
2016-05-14T04:24:50.770Z,997.99
2016-05-14T04:25:50.804Z,997.95
2016-05-14T04:26:50.837Z,997.98
2016-05-14T04:27:50.887Z,997.99
2016-05-14T04:29:50.952Z,997.99
2016-05-14T04:30:50.977Z,998.03
2016-05-14T04:31:51.016Z,998.06
2016-05-14T04:32:51.041Z,998.05
2016-05-14T04:33:51.064Z,998.08
2016-05-14T04:34:51.088Z,998.12
2016-05-14T04:35:51.124Z,998.11
2016-05-14T04:36:51.145Z,998.15
2016-05-14T04:37:51.165Z,998.04
2016-05-14T04:38:51.185Z,998.1
2016-05-14T04:39:51.220Z,998.16
2016-05-14T04:40:51.240Z,998.16
2016-05-14T04:41:51.274Z,998.16
2016-05-14T04:42:51.294Z,998.24
2016-05-14T04:44:51.332Z,998.35
2016-05-14T04:45:51.365Z,998.54
2016-05-14T04:46:51.385Z,998.65
2016-05-14T04:47:51.403Z,998.72
2016-05-14T04:48:51.860Z,998.74
2016-05-14T04:49:51.457Z,998.83
2016-05-14T04:50:51.474Z,998.84
2016-05-14T04:51:51.493Z,998.92
2016-05-14T04:52:51.526Z,998.92
2016-05-14T04:53:51.545Z,998.93
2016-05-14T04:54:51.563Z,999.01
2016-05-14T04:55:51.598Z,998.99
2016-05-14T04:56:51.616Z,999.08
2016-05-14T04:57:51.634Z,999.05
2016-05-14T04:58:51.668Z,999.15
2016-05-14T04:59:51.686Z,999.14
2016-05-14T05:00:51.720Z,999.15
2016-05-14T05:01:51.739Z,999.18
2016-05-14T05:02:51.756Z,999.21
2016-05-14T05:03:51.791Z,999.16
2016-05-14T05:04:51.809Z,999.27
2016-05-14T05:05:51.843Z,999.26
2016-05-14T05:06:51.862Z,999.26
2016-05-14T05:07:51.895Z,999.28
2016-05-14T05:08:51.914Z,999.33
2016-05-14T05:09:51.947Z,999.37
2016-05-14T05:10:51.966Z,999.46
2016-05-14T05:11:52.000Z,999.32
2016-05-14T05:12:52.019Z,999.39
2016-05-14T05:13:52.053Z,999.48
2016-05-14T05:14:52.070Z,999.39
2016-05-14T05:16:52.122Z,999.31
2016-05-14T05:17:52.157Z,999.5
2016-05-14T05:18:52.174Z,999.57
2016-05-14T05:19:52.209Z,999.64
2016-05-14T05:20:52.243Z,999.67
2016-05-14T05:21:52.261Z,999.62
2016-05-14T05:22:52.296Z,999.69
2016-05-14T05:23:52.329Z,999.78
2016-05-14T05:24:52.347Z,999.75
2016-05-14T05:25:52.381Z,999.81
2016-05-14T05:26:52.399Z,999.81
2016-05-14T05:27:52.434Z,999.85
2016-05-14T05:28:52.468Z,999.92
2016-05-14T05:29:52.485Z,999.97
2016-05-14T05:30:52.520Z,999.92
2016-05-14T05:32:52.572Z,999.97
2016-05-14T05:33:52.606Z,999.99
2016-05-14T05:34:52.640Z,1000.05
2016-05-14T05:35:52.658Z,999.97
2016-05-14T05:36:52.692Z,999.96
2016-05-14T05:37:52.726Z,1000.02
2016-05-14T05:38:52.744Z,1000.09
2016-05-14T05:39:52.778Z,1000.07
2016-05-14T05:40:52.811Z,1000.07
2016-05-14T05:41:52.846Z,1000.13
2016-05-14T05:42:52.865Z,1000.1
2016-05-14T05:43:52.898Z,1000.06
2016-05-14T05:44:52.933Z,1000.08
2016-05-14T05:45:52.966Z,1000.08
2016-05-14T05:46:52.985Z,1000.08
2016-05-14T05:48:53.052Z,1000.08
2016-05-14T05:49:53.102Z,1000.06
2016-05-14T05:50:53.104Z,1000.26
2016-05-14T05:51:53.139Z,1000.14
2016-05-14T05:52:53.173Z,1000.19
2016-05-14T05:53:53.207Z,999.94
2016-05-14T05:54:53.241Z,1000.33
2016-05-14T05:55:53.259Z,1000.21
2016-05-14T05:56:53.293Z,999.92
2016-05-14T05:57:53.327Z,999.81
2016-05-14T05:58:53.360Z,1000.01
2016-05-14T05:59:53.395Z,999.71
2016-05-14T06:00:53.412Z,999.71
2016-05-14T06:01:53.447Z,999.53
2016-05-14T06:02:53.481Z,999.49
2016-05-14T06:04:53.549Z,999.76
2016-05-14T06:05:53.567Z,1000.32
2016-05-14T06:06:53.601Z,999.6
2016-05-14T06:07:53.635Z,999.48
2016-05-14T06:08:53.669Z,1000.21
2016-05-14T06:09:53.687Z,999.82
2016-05-14T06:10:53.720Z,1000.19
2016-05-14T06:11:53.755Z,999.35
2016-05-14T06:12:53.773Z,999.29
2016-05-14T06:13:53.808Z,999.3
2016-05-14T06:14:53.842Z,999.38
2016-05-14T06:15:53.859Z,999.32
2016-05-14T06:16:53.894Z,999.34
2016-05-14T06:17:53.927Z,999.42
2016-05-14T06:19:53.979Z,999.4
2016-05-14T06:20:54.013Z,999.39
2016-05-14T06:21:54.032Z,999.5
2016-05-14T06:22:54.066Z,999.52
2016-05-14T06:23:54.085Z,999.4
2016-05-14T06:24:54.118Z,999.37
2016-05-14T06:25:54.136Z,999.48
2016-05-14T06:26:54.170Z,999.45
2016-05-14T06:27:54.188Z,999.45
2016-05-14T06:28:54.223Z,999.5
2016-05-14T06:29:54.240Z,999.45
2016-05-14T06:30:54.274Z,999.51
2016-05-14T06:31:54.293Z,999.47
2016-05-14T06:32:54.312Z,999.52
2016-05-14T06:33:54.346Z,999.53
2016-05-14T06:34:54.364Z,999.56
2016-05-14T06:35:54.429Z,999.53
2016-05-14T06:36:54.415Z,999.5
2016-05-14T06:37:54.450Z,999.56
2016-05-14T06:38:54.468Z,999.54
2016-05-14T06:39:54.486Z,999.97
2016-05-14T06:40:54.520Z,999.56
2016-05-14T06:41:54.538Z,999.58
2016-05-14T06:42:54.572Z,999.54
2016-05-14T06:43:54.592Z,999.48
2016-05-14T06:44:54.625Z,999.43
2016-05-14T06:45:54.644Z,999.49
2016-05-14T06:46:54.661Z,999.52
2016-05-14T06:47:54.695Z,999.52
2016-05-14T06:48:54.714Z,999.45
2016-05-14T06:49:54.747Z,999.5
2016-05-14T06:51:54.784Z,999.52
2016-05-14T06:52:54.819Z,999.53
2016-05-14T06:53:54.837Z,999.55
2016-05-14T06:54:54.871Z,999.55
2016-05-14T06:55:54.889Z,999.55
2016-05-14T06:56:54.907Z,999.54
2016-05-14T06:57:54.941Z,999.57
2016-05-14T06:58:54.960Z,999.53
2016-05-14T06:59:54.993Z,999.51
2016-05-14T07:00:55.012Z,999.56
2016-05-14T07:01:55.029Z,999.6
2016-05-14T07:02:55.064Z,999.56
2016-05-14T07:03:55.082Z,999.59
2016-05-14T07:04:55.100Z,999.61
2016-05-14T07:05:55.135Z,999.57
2016-05-14T07:07:55.187Z,999.55
2016-05-14T07:08:55.206Z,999.54
2016-05-14T07:09:55.223Z,999.55
2016-05-14T07:10:55.257Z,999.57
2016-05-14T07:11:55.275Z,999.59
2016-05-14T07:12:55.309Z,999.6
2016-05-14T07:13:55.328Z,999.5
2016-05-14T07:14:55.347Z,999.57
2016-05-14T07:15:55.381Z,999.61
2016-05-14T07:16:55.398Z,999.64
2016-05-14T07:17:55.417Z,999.62
2016-05-14T07:18:55.670Z,999.6
2016-05-14T07:19:55.469Z,999.59
2016-05-14T07:20:55.488Z,999.58
2016-05-14T07:21:55.505Z,999.6
2016-05-14T07:23:55.558Z,999.56
2016-05-14T07:24:55.592Z,999.57
2016-05-14T07:25:55.611Z,999.61
2016-05-14T07:26:55.628Z,999.59
2016-05-14T07:27:55.663Z,999.53
2016-05-14T07:28:55.681Z,999.55
2016-05-14T07:29:55.699Z,999.6
2016-05-14T07:30:55.733Z,999.6
2016-05-14T07:31:55.751Z,999.59
2016-05-14T07:32:55.770Z,999.61
2016-05-14T07:33:55.804Z,999.61
2016-05-14T07:34:55.821Z,999.54
2016-05-14T07:35:55.840Z,999.59
2016-05-14T07:36:55.874Z,999.54
2016-05-14T07:37:55.893Z,999.58
2016-05-14T07:39:55.945Z,999.58
2016-05-14T07:40:55.963Z,999.56
2016-05-14T07:41:55.981Z,999.61
2016-05-14T07:42:56.014Z,999.63
2016-05-14T07:43:56.034Z,999.63
2016-05-14T07:44:56.052Z,999.68
2016-05-14T07:45:56.086Z,999.65
2016-05-14T07:46:56.104Z,999.62
2016-05-14T07:47:56.123Z,999.68
2016-05-14T07:48:56.157Z,999.62
2016-05-14T07:49:56.175Z,999.68
2016-05-14T07:50:56.194Z,999.64
2016-05-14T07:51:56.227Z,999.64
2016-05-14T07:52:56.245Z,999.64
2016-05-14T07:54:56.297Z,999.67
2016-05-14T07:55:56.316Z,999.7
2016-05-14T07:56:56.350Z,999.67
2016-05-14T07:57:56.368Z,999.64
2016-05-14T07:58:56.386Z,999.69
2016-05-14T07:59:56.421Z,999.69
2016-05-14T08:00:56.439Z,999.72
2016-05-14T08:01:56.457Z,999.71
2016-05-14T08:02:56.476Z,999.69
2016-05-14T08:03:56.510Z,999.69
2016-05-14T08:04:56.527Z,999.63
2016-05-14T08:05:56.562Z,999.71
2016-05-14T08:06:56.579Z,999.74
2016-05-14T08:07:56.598Z,999.71
2016-05-14T08:08:56.632Z,999.8
2016-05-14T08:09:56.651Z,999.74
2016-05-14T08:10:56.669Z,999.81
2016-05-14T08:11:56.703Z,999.9
2016-05-14T08:12:56.720Z,999.82
2016-05-14T08:13:56.755Z,999.77
2016-05-14T08:14:56.773Z,999.81
2016-05-14T08:15:56.792Z,999.78
2016-05-14T08:16:56.825Z,999.82
2016-05-14T08:17:56.844Z,999.81
2016-05-14T08:18:56.862Z,999.79
2016-05-14T08:19:56.896Z,999.83
2016-05-14T08:20:56.914Z,999.81
2016-05-14T08:21:56.933Z,999.81
2016-05-14T08:22:56.967Z,999.86
2016-05-14T08:23:56.985Z,999.91
2016-05-14T08:24:57.003Z,999.87
2016-05-14T08:26:57.055Z,999.96
2016-05-14T08:27:57.089Z,999.93
2016-05-14T08:28:57.107Z,999.9
2016-05-14T08:29:57.126Z,999.91
2016-05-14T08:30:57.160Z,999.9
2016-05-14T08:31:57.179Z,999.9
2016-05-14T08:32:57.197Z,1000.01
2016-05-14T08:33:57.231Z,999.94
2016-05-14T08:34:57.249Z,999.92
2016-05-14T08:35:57.268Z,1000.05
2016-05-14T08:36:57.301Z,1000.02
2016-05-14T08:37:57.320Z,1000
2016-05-14T08:38:57.338Z,1000.04
2016-05-14T08:39:57.371Z,1000.02
2016-05-14T08:40:57.390Z,1000.03
2016-05-14T08:42:57.442Z,1000.07
2016-05-14T08:43:57.461Z,1000.05
2016-05-14T08:44:57.495Z,1000.04
2016-05-14T08:45:57.513Z,1000.06
2016-05-14T08:46:57.531Z,1000.09
2016-05-14T08:47:57.565Z,1000.15
2016-05-14T08:48:57.709Z,1000.13
2016-05-14T08:49:57.602Z,1000.16
2016-05-14T08:50:57.636Z,1000.14
2016-05-14T08:51:57.653Z,1000.17
2016-05-14T08:52:57.688Z,1000.12
2016-05-14T08:53:57.706Z,1000.21
2016-05-14T08:54:57.741Z,1000.17
2016-05-14T08:55:57.758Z,1000.23
2016-05-14T08:56:57.777Z,1000.28
2016-05-14T08:58:57.830Z,1000.26
2016-05-14T08:59:57.847Z,1000.26
2016-05-14T09:00:57.866Z,1000.23
2016-05-14T09:01:57.899Z,1000.31
2016-05-14T09:02:57.918Z,1000.3
2016-05-14T09:03:57.936Z,1000.23
2016-05-14T09:04:57.970Z,1000.34
2016-05-14T09:05:57.988Z,1000.3
2016-05-14T09:06:58.022Z,1000.42
2016-05-14T09:07:58.041Z,1000.41
2016-05-14T09:08:58.060Z,1000.46
2016-05-14T09:09:58.093Z,1000.46
2016-05-14T09:10:58.112Z,1000.49
2016-05-14T09:11:58.129Z,1000.47
2016-05-14T09:12:58.164Z,1000.5
2016-05-14T09:14:58.215Z,1000.55
2016-05-14T09:15:58.234Z,1000.54
2016-05-14T09:16:58.252Z,1000.56
2016-05-14T09:17:58.270Z,1000.52
2016-05-14T09:18:58.306Z,1000.53
2016-05-14T09:19:58.322Z,1000.53
2016-05-14T09:20:58.357Z,1000.57
2016-05-14T09:21:58.375Z,1000.56
2016-05-14T09:22:58.394Z,1000.57
2016-05-14T09:23:58.428Z,1000.58
2016-05-14T09:24:58.446Z,1000.65
2016-05-14T09:25:58.464Z,1000.66
2016-05-14T09:26:58.497Z,1000.63
2016-05-14T09:27:58.516Z,1000.62
2016-05-14T09:29:58.568Z,1000.64
2016-05-14T09:30:58.588Z,1000.63
2016-05-14T09:31:58.605Z,1000.71
2016-05-14T09:32:58.655Z,1000.68
2016-05-14T09:33:58.658Z,1000.69
2016-05-14T09:34:58.691Z,1000.68
2016-05-14T09:35:58.710Z,1000.67
2016-05-14T09:36:58.728Z,1000.72
2016-05-14T09:37:58.762Z,1000.73
2016-05-14T09:38:58.780Z,1000.75
2016-05-14T09:39:58.798Z,1000.86
2016-05-14T09:40:58.832Z,1000.78
2016-05-14T09:41:58.850Z,1000.82
2016-05-14T09:42:58.884Z,1000.85
2016-05-14T09:43:58.904Z,1000.83
2016-05-14T09:44:58.921Z,1000.76
2016-05-14T09:45:58.956Z,1000.77
2016-05-14T09:46:58.973Z,1000.77
2016-05-14T09:47:59.008Z,1000.78
2016-05-14T09:48:59.026Z,1000.74
2016-05-14T09:49:59.044Z,1000.78
2016-05-14T09:50:59.078Z,1000.71
2016-05-14T09:51:59.097Z,1000.78
2016-05-14T09:52:59.130Z,1000.72
2016-05-14T09:53:59.149Z,1000.71
2016-05-14T09:54:59.183Z,1000.74
2016-05-14T09:55:59.201Z,1000.74
2016-05-14T09:56:59.219Z,1000.64
2016-05-14T09:57:59.253Z,1000.73
2016-05-14T09:58:59.272Z,1000.75
2016-05-14T09:59:59.305Z,1000.77
2016-05-14T10:01:59.358Z,1000.77
2016-05-14T10:02:59.376Z,1000.71
2016-05-14T10:03:59.394Z,1000.71
2016-05-14T10:04:59.429Z,1000.65
2016-05-14T10:05:59.462Z,1000.64
2016-05-14T10:06:59.480Z,1000.67
2016-05-14T10:07:59.515Z,1000.67
2016-05-14T10:08:59.533Z,1000.65
2016-05-14T10:09:59.552Z,1000.67
2016-05-14T10:10:59.584Z,1000.62
2016-05-14T10:11:59.604Z,1000.59
2016-05-14T10:12:59.638Z,1000.61
2016-05-14T10:13:59.656Z,1000.64
2016-05-14T10:14:59.690Z,1000.6
2016-05-14T10:15:59.708Z,1000.55
2016-05-14T10:17:59.760Z,1000.61
2016-05-14T10:18:59.794Z,1000.69
2016-05-14T10:19:59.812Z,1000.68
2016-05-14T10:20:59.830Z,1000.68
2016-05-14T10:21:59.864Z,1000.65
2016-05-14T10:22:59.899Z,1000.72
2016-05-14T10:23:59.917Z,1000.68
2016-05-14T10:24:59.936Z,1000.73
2016-05-14T10:25:59.969Z,1000.63
2016-05-14T10:26:59.988Z,1000.65
2016-05-14T10:28:00.022Z,1000.69
2016-05-14T10:29:00.039Z,1000.72
2016-05-14T10:30:00.074Z,1000.7
2016-05-14T10:31:00.092Z,1000.66
2016-05-14T10:32:00.126Z,1000.78
2016-05-14T10:34:00.178Z,1000.73
2016-05-14T10:35:00.196Z,1000.77
2016-05-14T10:36:00.230Z,1000.8
2016-05-14T10:37:00.249Z,1000.73
2016-05-14T10:38:00.283Z,1000.78
2016-05-14T10:39:00.302Z,1000.71
2016-05-14T10:40:00.335Z,1000.79
2016-05-14T10:41:00.354Z,1000.68
2016-05-14T10:42:00.388Z,1000.86
2016-05-14T10:43:00.406Z,1000.76
2016-05-14T10:44:00.440Z,1000.77
2016-05-14T10:45:00.457Z,1000.81
2016-05-14T10:46:00.507Z,1000.74
2016-05-14T10:47:00.510Z,1000.78
2016-05-14T10:48:00.544Z,1000.76
2016-05-14T10:50:00.595Z,1000.88
2016-05-14T10:51:00.614Z,1000.87
2016-05-14T10:52:00.649Z,1000.74
2016-05-14T10:53:00.667Z,1000.81
2016-05-14T10:54:00.700Z,1000.85
2016-05-14T10:55:00.719Z,1000.8
2016-05-14T10:56:00.753Z,1000.81
2016-05-14T10:57:00.772Z,1000.87
2016-05-14T10:58:00.805Z,1000.75
2016-05-14T10:59:00.824Z,1000.72
2016-05-14T11:00:00.858Z,1000.79
2016-05-14T11:01:00.876Z,1000.78
2016-05-14T11:02:00.894Z,1000.74
2016-05-14T11:03:00.928Z,1000.77
2016-05-14T11:05:00.980Z,1000.85
2016-05-14T11:06:00.999Z,1000.88
2016-05-14T11:07:01.032Z,1000.9
2016-05-14T11:08:01.052Z,1000.89
2016-05-14T11:09:01.084Z,1000.77
2016-05-14T11:10:01.103Z,1000.82
2016-05-14T11:11:01.138Z,1000.86
2016-05-14T11:12:01.155Z,1000.8
2016-05-14T11:13:01.190Z,1000.75
2016-05-14T11:14:01.207Z,1000.87
2016-05-14T11:15:01.242Z,1000.83
2016-05-14T11:16:01.260Z,1000.81
2016-05-14T11:17:01.310Z,1000.83
2016-05-14T11:18:01.312Z,1000.84
2016-05-14T11:19:01.393Z,1000.91
2016-05-14T11:20:01.365Z,1000.84
2016-05-14T11:21:01.383Z,1000.79
2016-05-14T11:22:01.417Z,1000.92
2016-05-14T11:23:01.434Z,1000.92
2016-05-14T11:24:01.469Z,1000.87
2016-05-14T11:25:01.487Z,1000.76
2016-05-14T11:26:01.506Z,1000.72
2016-05-14T11:27:01.540Z,1000.83
2016-05-14T11:28:01.558Z,1000.88
2016-05-14T11:29:01.591Z,1000.94
2016-05-14T11:30:01.610Z,1000.96
2016-05-14T11:31:01.628Z,1001.01
2016-05-14T11:32:01.663Z,1000.97
2016-05-14T11:33:01.680Z,1000.94
2016-05-14T11:34:01.714Z,1000.93
2016-05-14T11:35:01.733Z,1000.88
2016-05-14T11:37:01.785Z,1000.9
2016-05-14T11:38:01.819Z,1000.86
2016-05-14T11:39:01.838Z,1000.89
2016-05-14T11:40:01.855Z,1000.97
2016-05-14T11:41:01.890Z,1001.02
2016-05-14T11:42:01.907Z,1000.89
2016-05-14T11:43:01.942Z,1000.92
2016-05-14T11:44:01.960Z,1000.86
2016-05-14T11:45:01.994Z,1000.76
2016-05-14T11:46:02.012Z,1000.82
2016-05-14T11:47:02.046Z,1000.95
2016-05-14T11:48:02.065Z,1001.02
2016-05-14T11:49:02.240Z,1000.93
2016-05-14T11:50:02.117Z,1001.04
2016-05-14T11:51:02.135Z,1000.95
2016-05-14T11:53:02.188Z,1000.94
2016-05-14T11:54:02.222Z,1000.84
2016-05-14T11:55:02.240Z,1000.94
2016-05-14T11:56:02.273Z,1000.83
2016-05-14T11:57:02.292Z,1000.9
2016-05-14T11:58:02.311Z,1001.05
2016-05-14T11:59:02.344Z,1000.96
2016-05-14T12:00:02.363Z,1000.99
2016-05-14T12:01:02.396Z,1000.89
2016-05-14T12:02:02.414Z,1000.92
2016-05-14T12:03:02.449Z,1000.94
2016-05-14T12:04:02.514Z,1000.88
2016-05-14T12:05:02.485Z,1000.89
2016-05-14T12:06:02.519Z,1001
2016-05-14T12:07:02.538Z,1001.03
2016-05-14T12:09:02.606Z,1001.05
2016-05-14T12:10:02.623Z,1001.14
2016-05-14T12:11:02.642Z,1001.14
2016-05-14T12:12:02.660Z,1001.06
2016-05-14T12:13:02.694Z,1001.09
2016-05-14T12:14:02.713Z,1001.06
2016-05-14T12:15:02.747Z,1001.01
2016-05-14T12:16:02.766Z,1001
2016-05-14T12:17:02.799Z,1001.02
2016-05-14T12:18:02.818Z,1001.13
2016-05-14T12:19:02.851Z,1001.14
2016-05-14T12:20:02.870Z,1001.1
2016-05-14T12:21:02.904Z,1001.08
2016-05-14T12:22:02.922Z,1001.1
2016-05-14T12:23:02.940Z,1001.09
2016-05-14T12:25:02.992Z,1001.07
2016-05-14T12:26:03.026Z,1001.16
2016-05-14T12:27:03.045Z,1001.14
2016-05-14T12:28:03.063Z,1001.23
2016-05-14T12:29:03.097Z,1001.23
2016-05-14T12:30:03.115Z,1001.15
2016-05-14T12:31:03.149Z,1001.13
2016-05-14T12:32:03.167Z,1001.09
2016-05-14T12:33:03.201Z,1001.17
2016-05-14T12:34:03.219Z,1001.16
2016-05-14T12:35:03.253Z,1001.27
2016-05-14T12:36:03.272Z,1001.11
2016-05-14T12:37:03.290Z,1001.11
2016-05-14T12:38:03.324Z,1001.16
2016-05-14T12:40:03.377Z,1001.15
2016-05-14T12:41:03.395Z,1001.27
2016-05-14T12:42:03.413Z,1001.14
2016-05-14T12:43:03.447Z,1001.19
2016-05-14T12:44:03.466Z,1001.3
2016-05-14T12:45:03.499Z,1001.26
2016-05-14T12:46:03.518Z,1001.32
2016-05-14T12:47:03.551Z,1001.25
2016-05-14T12:48:03.570Z,1001.29
2016-05-14T12:49:03.588Z,1001.36
2016-05-14T12:50:03.622Z,1001.36
2016-05-14T12:51:03.641Z,1001.35
2016-05-14T12:52:03.674Z,1001.36
2016-05-14T12:53:03.692Z,1001.49
2016-05-14T12:54:03.726Z,1001.4
2016-05-14T12:55:03.745Z,1001.37
2016-05-14T12:56:03.764Z,1001.34
2016-05-14T12:57:03.797Z,1001.34
2016-05-14T12:58:03.815Z,1001.37
2016-05-14T12:59:03.850Z,1001.36
2016-05-14T13:00:03.883Z,1001.33
2016-05-14T13:01:03.886Z,1001.32
2016-05-14T13:02:03.920Z,1001.29
2016-05-14T13:03:03.938Z,1001.4